sensor_id;sensor_type;location;lat;lon;timestamp;P1;durP1;ratioP1;P2;durP2;ratioP2
61397;SDS011;47267;48.130;-2.040;2023-02-28T00:02:18;2.90;;;1.40;;
61397;SDS011;47267;48.130;-2.040;2023-02-28T00:04:43;2.72;;;1.40;;
61397;SDS011;47267;48.130;-2.040;2023-02-28T00:07:09;3.05;;;1.42;;
61397;SDS011;47267;48.130;-2.040;2023-02-28T00:09:35;4.10;;;1.60;;
61397;SDS011;47267;48.130;-2.040;2023-02-28T00:12:00;2.88;;;1.45;;
61397;SDS011;47267;48.130;-2.040;2023-02-28T00:14:35;2.47;;;1.52;;
61397;SDS011;47267;48.130;-2.040;2023-02-28T00:17:01;2.30;;;1.40;;
61397;SDS011;47267;48.130;-2.040;2023-02-28T00:19:27;2.72;;;1.65;;
61397;SDS011;47267;48.130;-2.040;2023-02-28T00:21:53;2.38;;;1.60;;
61397;SDS011;47267;48.130;-2.040;2023-02-28T00:24:18;2.58;;;1.30;;
61397;SDS011;47267;48.130;-2.040;2023-02-28T00:26:44;4.07;;;1.65;;
61397;SDS011;47267;48.130;-2.040;2023-02-28T00:29:10;4.35;;;1.98;;
61397;SDS011;47267;48.130;-2.040;2023-02-28T00:31:35;2.50;;;1.60;;
61397;SDS011;47267;48.130;-2.040;2023-02-28T00:34:01;3.20;;;1.70;;
61397;SDS011;47267;48.130;-2.040;2023-02-28T00:36:27;2.72;;;1.35;;
61397;SDS011;47267;48.130;-2.040;2023-02-28T00:38:52;3.35;;;1.55;;
61397;SDS011;47267;48.130;-2.040;2023-02-28T00:41:18;2.58;;;1.55;;
61397;SDS011;47267;48.130;-2.040;2023-02-28T00:43:44;3.30;;;1.40;;
61397;SDS011;47267;48.130;-2.040;2023-02-28T00:46:09;4.40;;;1.90;;
61397;SDS011;47267;48.130;-2.040;2023-02-28T00:48:35;3.40;;;1.67;;
61397;SDS011;47267;48.130;-2.040;2023-02-28T00:51:01;2.17;;;1.30;;
61397;SDS011;47267;48.130;-2.040;2023-02-28T00:53:27;2.85;;;1.58;;
61397;SDS011;47267;48.130;-2.040;2023-02-28T00:55:53;2.78;;;1.50;;
61397;SDS011;47267;48.130;-2.040;2023-02-28T00:58:19;2.75;;;1.30;;
61397;SDS011;47267;48.130;-2.040;2023-02-28T01:00:45;2.15;;;1.20;;
61397;SDS011;47267;48.130;-2.040;2023-02-28T01:03:14;2.88;;;1.40;;
61397;SDS011;47267;48.130;-2.040;2023-02-28T01:05:41;3.80;;;1.67;;
61397;SDS011;47267;48.130;-2.040;2023-02-28T01:08:07;2.83;;;1.40;;
61397;SDS011;47267;48.130;-2.040;2023-02-28T01:10:32;3.10;;;1.35;;
61397;SDS011;47267;48.130;-2.040;2023-02-28T01:12:58;5.32;;;1.33;;
61397;SDS011;47267;48.130;-2.040;2023-02-28T01:15:24;3.40;;;1.63;;
61397;SDS011;47267;48.130;-2.040;2023-02-28T01:17:50;2.40;;;1.48;;
61397;SDS011;47267;48.130;-2.040;2023-02-28T01:20:15;2.47;;;1.27;;
61397;SDS011;47267;48.130;-2.040;2023-02-28T01:22:41;2.95;;;1.45;;
61397;SDS011;47267;48.130;-2.040;2023-02-28T01:25:07;2.63;;;1.30;;
61397;SDS011;47267;48.130;-2.040;2023-02-28T01:27:33;2.50;;;1.30;;
61397;SDS011;47267;48.130;-2.040;2023-02-28T01:29:59;2.58;;;1.50;;
61397;SDS011;47267;48.130;-2.040;2023-02-28T01:32:25;2.45;;;1.42;;
61397;SDS011;47267;48.130;-2.040;2023-02-28T01:34:50;2.95;;;1.30;;
61397;SDS011;47267;48.130;-2.040;2023-02-28T01:37:16;3.22;;;1.65;;
61397;SDS011;47267;48.130;-2.040;2023-02-28T01:39:41;3.50;;;1.50;;
61397;SDS011;47267;48.130;-2.040;2023-02-28T01:42:08;2.15;;;1.30;;
61397;SDS011;47267;48.130;-2.040;2023-02-28T01:47:18;2.25;;;1.30;;
61397;SDS011;47267;48.130;-2.040;2023-02-28T01:49:45;3.17;;;1.40;;
61397;SDS011;47267;48.130;-2.040;2023-02-28T01:52:12;2.08;;;1.40;;
61397;SDS011;47267;48.130;-2.040;2023-02-28T01:54:43;3.47;;;1.40;;
61397;SDS011;47267;48.130;-2.040;2023-02-28T01:57:16;2.10;;;1.20;;
61397;SDS011;47267;48.130;-2.040;2023-02-28T01:59:46;1.88;;;1.27;;
61397;SDS011;47267;48.130;-2.040;2023-02-28T02:02:17;2.65;;;1.23;;
61397;SDS011;47267;48.130;-2.040;2023-02-28T02:04:53;2.70;;;1.40;;
61397;SDS011;47267;48.130;-2.040;2023-02-28T02:07:26;2.92;;;1.50;;
61397;SDS011;47267;48.130;-2.040;2023-02-28T02:10:01;3.72;;;1.65;;
61397;SDS011;47267;48.130;-2.040;2023-02-28T02:15:27;3.90;;;1.65;;
61397;SDS011;47267;48.130;-2.040;2023-02-28T02:17:53;2.30;;;1.40;;
61397;SDS011;47267;48.130;-2.040;2023-02-28T02:26:28;1.83;;;1.20;;
61397;SDS011;47267;48.130;-2.040;2023-02-28T02:42:23;2.67;;;1.20;;
61397;SDS011;47267;48.130;-2.040;2023-02-28T02:44:56;2.78;;;1.40;;
61397;SDS011;47267;48.130;-2.040;2023-02-28T02:47:27;2.00;;;1.30;;
61397;SDS011;47267;48.130;-2.040;2023-02-28T02:49:56;2.80;;;1.30;;
61397;SDS011;47267;48.130;-2.040;2023-02-28T02:52:37;2.22;;;1.38;;
61397;SDS011;47267;48.130;-2.040;2023-02-28T02:55:05;2.30;;;1.20;;
61397;SDS011;47267;48.130;-2.040;2023-02-28T02:57:37;2.30;;;1.30;;
61397;SDS011;47267;48.130;-2.040;2023-02-28T03:00:38;2.95;;;1.20;;
61397;SDS011;47267;48.130;-2.040;2023-02-28T03:03:07;2.28;;;1.33;;
61397;SDS011;47267;48.130;-2.040;2023-02-28T03:05:39;2.72;;;1.45;;
61397;SDS011;47267;48.130;-2.040;2023-02-28T03:08:09;1.92;;;1.10;;
61397;SDS011;47267;48.130;-2.040;2023-02-28T03:13:08;2.40;;;1.20;;
61397;SDS011;47267;48.130;-2.040;2023-02-28T03:15:58;2.63;;;1.40;;
61397;SDS011;47267;48.130;-2.040;2023-02-28T03:21:43;3.55;;;1.30;;
61397;SDS011;47267;48.130;-2.040;2023-02-28T03:24:19;3.88;;;1.50;;
61397;SDS011;47267;48.130;-2.040;2023-02-28T03:26:50;3.35;;;1.23;;
61397;SDS011;47267;48.130;-2.040;2023-02-28T03:29:31;2.15;;;1.30;;
61397;SDS011;47267;48.130;-2.040;2023-02-28T03:32:06;2.17;;;1.10;;
61397;SDS011;47267;48.130;-2.040;2023-02-28T03:34:42;2.83;;;1.38;;
61397;SDS011;47267;48.130;-2.040;2023-02-28T03:37:16;2.17;;;1.15;;
61397;SDS011;47267;48.130;-2.040;2023-02-28T03:39:47;2.95;;;1.38;;
61397;SDS011;47267;48.130;-2.040;2023-02-28T03:42:20;2.60;;;1.20;;
61397;SDS011;47267;48.130;-2.040;2023-02-28T03:44:51;2.13;;;1.20;;
61397;SDS011;47267;48.130;-2.040;2023-02-28T03:47:39;3.10;;;1.30;;
61397;SDS011;47267;48.130;-2.040;2023-02-28T03:53:06;2.10;;;1.20;;
61397;SDS011;47267;48.130;-2.040;2023-02-28T03:55:47;3.05;;;1.17;;
61397;SDS011;47267;48.130;-2.040;2023-02-28T03:58:34;2.92;;;1.33;;
61397;SDS011;47267;48.130;-2.040;2023-02-28T04:01:10;3.60;;;1.10;;
61397;SDS011;47267;48.130;-2.040;2023-02-28T04:03:45;2.10;;;0.95;;
61397;SDS011;47267;48.130;-2.040;2023-02-28T04:06:17;1.63;;;1.00;;
61397;SDS011;47267;48.130;-2.040;2023-02-28T04:08:46;2.17;;;1.10;;
61397;SDS011;47267;48.130;-2.040;2023-02-28T04:11:23;2.33;;;1.25;;
61397;SDS011;47267;48.130;-2.040;2023-02-28T04:13:54;2.38;;;1.20;;
61397;SDS011;47267;48.130;-2.040;2023-02-28T04:16:20;2.78;;;1.38;;
61397;SDS011;47267;48.130;-2.040;2023-02-28T04:18:46;1.60;;;0.90;;
61397;SDS011;47267;48.130;-2.040;2023-02-28T04:21:12;2.75;;;1.13;;
61397;SDS011;47267;48.130;-2.040;2023-02-28T04:23:38;3.60;;;1.42;;
61397;SDS011;47267;48.130;-2.040;2023-02-28T04:26:04;1.63;;;1.10;;
61397;SDS011;47267;48.130;-2.040;2023-02-28T04:28:31;2.15;;;1.25;;
61397;SDS011;47267;48.130;-2.040;2023-02-28T04:30:57;2.80;;;1.30;;
61397;SDS011;47267;48.130;-2.040;2023-02-28T04:33:29;2.83;;;1.20;;
61397;SDS011;47267;48.130;-2.040;2023-02-28T04:36:03;2.35;;;1.50;;
61397;SDS011;47267;48.130;-2.040;2023-02-28T04:38:34;1.98;;;1.08;;
61397;SDS011;47267;48.130;-2.040;2023-02-28T04:41:01;1.77;;;1.30;;
61397;SDS011;47267;48.130;-2.040;2023-02-28T04:43:28;1.48;;;1.10;;
61397;SDS011;47267;48.130;-2.040;2023-02-28T04:45:54;3.25;;;1.40;;
61397;SDS011;47267;48.130;-2.040;2023-02-28T04:48:24;1.95;;;0.90;;
61397;SDS011;47267;48.130;-2.040;2023-02-28T04:50:52;1.23;;;1.00;;
61397;SDS011;47267;48.130;-2.040;2023-02-28T04:53:17;2.20;;;0.98;;
61397;SDS011;47267;48.130;-2.040;2023-02-28T04:55:43;1.88;;;1.25;;
61397;SDS011;47267;48.130;-2.040;2023-02-28T04:58:10;1.80;;;1.13;;
61397;SDS011;47267;48.130;-2.040;2023-02-28T05:00:35;2.58;;;1.30;;
61397;SDS011;47267;48.130;-2.040;2023-02-28T05:03:01;2.05;;;1.20;;
61397;SDS011;47267;48.130;-2.040;2023-02-28T05:05:27;2.20;;;1.10;;
61397;SDS011;47267;48.130;-2.040;2023-02-28T05:07:53;2.78;;;1.20;;
61397;SDS011;47267;48.130;-2.040;2023-02-28T05:10:20;2.47;;;1.33;;
61397;SDS011;47267;48.130;-2.040;2023-02-28T05:12:47;2.05;;;1.10;;
61397;SDS011;47267;48.130;-2.040;2023-02-28T05:15:14;3.45;;;1.10;;
61397;SDS011;47267;48.130;-2.040;2023-02-28T05:17:40;2.22;;;0.93;;
61397;SDS011;47267;48.130;-2.040;2023-02-28T05:20:06;2.53;;;1.17;;
61397;SDS011;47267;48.130;-2.040;2023-02-28T05:22:35;2.13;;;1.25;;
61397;SDS011;47267;48.130;-2.040;2023-02-28T05:25:03;2.58;;;1.10;;
61397;SDS011;47267;48.130;-2.040;2023-02-28T05:27:30;2.05;;;1.30;;
61397;SDS011;47267;48.130;-2.040;2023-02-28T05:29:56;2.05;;;1.20;;
61397;SDS011;47267;48.130;-2.040;2023-02-28T05:32:22;2.33;;;1.15;;
61397;SDS011;47267;48.130;-2.040;2023-02-28T05:34:47;1.60;;;0.90;;
61397;SDS011;47267;48.130;-2.040;2023-02-28T05:37:14;1.58;;;1.17;;
61397;SDS011;47267;48.130;-2.040;2023-02-28T05:39:40;1.45;;;0.77;;
61397;SDS011;47267;48.130;-2.040;2023-02-28T05:42:07;2.28;;;1.27;;
61397;SDS011;47267;48.130;-2.040;2023-02-28T05:44:34;1.55;;;1.00;;
61397;SDS011;47267;48.130;-2.040;2023-02-28T05:47:00;1.52;;;1.00;;
61397;SDS011;47267;48.130;-2.040;2023-02-28T05:49:26;2.92;;;1.30;;
61397;SDS011;47267;48.130;-2.040;2023-02-28T05:51:51;2.35;;;1.00;;
61397;SDS011;47267;48.130;-2.040;2023-02-28T05:54:17;2.20;;;1.17;;
61397;SDS011;47267;48.130;-2.040;2023-02-28T05:56:43;1.50;;;1.10;;
61397;SDS011;47267;48.130;-2.040;2023-02-28T05:59:10;1.80;;;1.05;;
61397;SDS011;47267;48.130;-2.040;2023-02-28T06:01:40;2.75;;;1.20;;
61397;SDS011;47267;48.130;-2.040;2023-02-28T06:04:13;1.70;;;1.10;;
61397;SDS011;47267;48.130;-2.040;2023-02-28T06:06:46;1.67;;;1.00;;
61397;SDS011;47267;48.130;-2.040;2023-02-28T06:09:12;1.90;;;1.10;;
61397;SDS011;47267;48.130;-2.040;2023-02-28T06:11:38;2.55;;;1.40;;
61397;SDS011;47267;48.130;-2.040;2023-02-28T06:14:04;1.70;;;1.15;;
61397;SDS011;47267;48.130;-2.040;2023-02-28T06:16:31;2.38;;;1.20;;
61397;SDS011;47267;48.130;-2.040;2023-02-28T06:18:58;2.42;;;1.20;;
61397;SDS011;47267;48.130;-2.040;2023-02-28T06:21:27;3.00;;;1.17;;
61397;SDS011;47267;48.130;-2.040;2023-02-28T06:23:54;2.80;;;1.20;;
61397;SDS011;47267;48.130;-2.040;2023-02-28T06:26:20;1.90;;;1.10;;
61397;SDS011;47267;48.130;-2.040;2023-02-28T06:28:46;3.10;;;1.20;;
61397;SDS011;47267;48.130;-2.040;2023-02-28T06:31:14;2.15;;;1.23;;
61397;SDS011;47267;48.130;-2.040;2023-02-28T06:33:41;2.00;;;1.10;;
61397;SDS011;47267;48.130;-2.040;2023-02-28T06:36:08;1.98;;;1.27;;
61397;SDS011;47267;48.130;-2.040;2023-02-28T06:38:35;1.88;;;1.10;;
61397;SDS011;47267;48.130;-2.040;2023-02-28T06:41:02;1.50;;;0.93;;
61397;SDS011;47267;48.130;-2.040;2023-02-28T06:43:29;3.40;;;1.27;;
61397;SDS011;47267;48.130;-2.040;2023-02-28T06:45:56;3.90;;;1.52;;
61397;SDS011;47267;48.130;-2.040;2023-02-28T06:48:23;4.00;;;1.55;;
61397;SDS011;47267;48.130;-2.040;2023-02-28T06:50:50;6.05;;;1.65;;
61397;SDS011;47267;48.130;-2.040;2023-02-28T06:53:16;4.13;;;1.90;;
61397;SDS011;47267;48.130;-2.040;2023-02-28T06:55:42;5.32;;;2.08;;
61397;SDS011;47267;48.130;-2.040;2023-02-28T06:58:08;6.32;;;2.10;;
61397;SDS011;47267;48.130;-2.040;2023-02-28T07:00:43;5.07;;;2.03;;
61397;SDS011;47267;48.130;-2.040;2023-02-28T07:03:10;7.63;;;1.95;;
61397;SDS011;47267;48.130;-2.040;2023-02-28T07:05:37;4.78;;;1.98;;
61397;SDS011;47267;48.130;-2.040;2023-02-28T07:08:04;4.68;;;1.75;;
61397;SDS011;47267;48.130;-2.040;2023-02-28T07:10:31;7.40;;;2.17;;
61397;SDS011;47267;48.130;-2.040;2023-02-28T07:12:57;5.72;;;2.00;;
61397;SDS011;47267;48.130;-2.040;2023-02-28T07:15:23;7.25;;;2.38;;
61397;SDS011;47267;48.130;-2.040;2023-02-28T07:17:49;4.72;;;2.05;;
61397;SDS011;47267;48.130;-2.040;2023-02-28T07:20:15;3.10;;;1.73;;
61397;SDS011;47267;48.130;-2.040;2023-02-28T07:22:41;4.72;;;1.80;;
61397;SDS011;47267;48.130;-2.040;2023-02-28T07:25:08;5.97;;;1.75;;
61397;SDS011;47267;48.130;-2.040;2023-02-28T07:27:34;7.15;;;2.10;;
61397;SDS011;47267;48.130;-2.040;2023-02-28T07:29:59;6.50;;;2.05;;
61397;SDS011;47267;48.130;-2.040;2023-02-28T07:32:28;4.43;;;1.90;;
61397;SDS011;47267;48.130;-2.040;2023-02-28T07:34:54;4.32;;;1.80;;
61397;SDS011;47267;48.130;-2.040;2023-02-28T07:37:20;4.70;;;1.90;;
61397;SDS011;47267;48.130;-2.040;2023-02-28T07:39:47;4.43;;;1.83;;
61397;SDS011;47267;48.130;-2.040;2023-02-28T07:42:12;5.57;;;1.98;;
61397;SDS011;47267;48.130;-2.040;2023-02-28T07:44:38;4.35;;;1.85;;
61397;SDS011;47267;48.130;-2.040;2023-02-28T07:47:11;4.25;;;2.00;;
61397;SDS011;47267;48.130;-2.040;2023-02-28T07:49:37;6.13;;;2.05;;
61397;SDS011;47267;48.130;-2.040;2023-02-28T07:52:06;4.40;;;1.73;;
61397;SDS011;47267;48.130;-2.040;2023-02-28T07:54:32;5.00;;;1.80;;
61397;SDS011;47267;48.130;-2.040;2023-02-28T07:56:58;5.15;;;1.73;;
61397;SDS011;47267;48.130;-2.040;2023-02-28T07:59:24;3.35;;;1.77;;
61397;SDS011;47267;48.130;-2.040;2023-02-28T08:01:50;5.03;;;1.90;;
61397;SDS011;47267;48.130;-2.040;2023-02-28T08:04:16;5.78;;;1.98;;
61397;SDS011;47267;48.130;-2.040;2023-02-28T08:06:43;4.40;;;2.03;;
61397;SDS011;47267;48.130;-2.040;2023-02-28T08:09:08;3.10;;;1.63;;
61397;SDS011;47267;48.130;-2.040;2023-02-28T08:11:34;5.18;;;1.85;;
61397;SDS011;47267;48.130;-2.040;2023-02-28T08:14:01;6.03;;;2.15;;
61397;SDS011;47267;48.130;-2.040;2023-02-28T08:16:27;9.43;;;2.13;;
61397;SDS011;47267;48.130;-2.040;2023-02-28T08:18:52;7.00;;;1.85;;
61397;SDS011;47267;48.130;-2.040;2023-02-28T08:21:19;4.47;;;1.63;;
61397;SDS011;47267;48.130;-2.040;2023-02-28T08:23:46;3.88;;;1.60;;
61397;SDS011;47267;48.130;-2.040;2023-02-28T08:26:13;3.30;;;1.70;;
61397;SDS011;47267;48.130;-2.040;2023-02-28T08:28:39;5.78;;;1.83;;
61397;SDS011;47267;48.130;-2.040;2023-02-28T08:31:09;2.72;;;1.50;;
61397;SDS011;47267;48.130;-2.040;2023-02-28T08:33:36;3.60;;;1.83;;
61397;SDS011;47267;48.130;-2.040;2023-02-28T08:36:04;5.32;;;1.60;;
61397;SDS011;47267;48.130;-2.040;2023-02-28T08:38:30;4.35;;;1.77;;
61397;SDS011;47267;48.130;-2.040;2023-02-28T08:41:03;3.80;;;1.80;;
61397;SDS011;47267;48.130;-2.040;2023-02-28T08:43:32;4.55;;;1.50;;
61397;SDS011;47267;48.130;-2.040;2023-02-28T08:45:59;3.15;;;1.70;;
61397;SDS011;47267;48.130;-2.040;2023-02-28T08:48:28;4.15;;;1.80;;
61397;SDS011;47267;48.130;-2.040;2023-02-28T08:51:14;4.18;;;1.60;;
61397;SDS011;47267;48.130;-2.040;2023-02-28T08:53:44;4.00;;;1.70;;
61397;SDS011;47267;48.130;-2.040;2023-02-28T08:56:12;3.53;;;1.70;;
61397;SDS011;47267;48.130;-2.040;2023-02-28T08:58:38;4.03;;;1.60;;
61397;SDS011;47267;48.130;-2.040;2023-02-28T09:01:09;3.83;;;1.73;;
61397;SDS011;47267;48.130;-2.040;2023-02-28T09:03:39;3.13;;;1.52;;
61397;SDS011;47267;48.130;-2.040;2023-02-28T09:06:06;2.63;;;1.38;;
61397;SDS011;47267;48.130;-2.040;2023-02-28T09:08:33;3.97;;;1.38;;
61397;SDS011;47267;48.130;-2.040;2023-02-28T09:10:59;3.83;;;1.60;;
61397;SDS011;47267;48.130;-2.040;2023-02-28T09:13:25;2.65;;;1.40;;
61397;SDS011;47267;48.130;-2.040;2023-02-28T09:15:51;2.58;;;1.60;;
61397;SDS011;47267;48.130;-2.040;2023-02-28T09:18:18;3.55;;;1.90;;
61397;SDS011;47267;48.130;-2.040;2023-02-28T09:20:44;3.92;;;1.40;;
61397;SDS011;47267;48.130;-2.040;2023-02-28T09:23:10;1.80;;;1.40;;
61397;SDS011;47267;48.130;-2.040;2023-02-28T09:25:37;4.32;;;1.63;;
61397;SDS011;47267;48.130;-2.040;2023-02-28T09:28:09;4.47;;;1.50;;
61397;SDS011;47267;48.130;-2.040;2023-02-28T09:30:36;2.63;;;1.50;;
61397;SDS011;47267;48.130;-2.040;2023-02-28T09:33:02;2.63;;;1.63;;
61397;SDS011;47267;48.130;-2.040;2023-02-28T09:35:28;2.33;;;1.52;;
61397;SDS011;47267;48.130;-2.040;2023-02-28T09:37:55;3.45;;;1.40;;
61397;SDS011;47267;48.130;-2.040;2023-02-28T09:40:23;2.70;;;1.42;;
61397;SDS011;47267;48.130;-2.040;2023-02-28T09:42:51;2.85;;;1.60;;
61397;SDS011;47267;48.130;-2.040;2023-02-28T09:45:27;4.65;;;1.55;;
61397;SDS011;47267;48.130;-2.040;2023-02-28T09:48:22;2.92;;;1.55;;
61397;SDS011;47267;48.130;-2.040;2023-02-28T09:50:55;2.42;;;1.55;;
61397;SDS011;47267;48.130;-2.040;2023-02-28T09:56:01;2.38;;;1.23;;
61397;SDS011;47267;48.130;-2.040;2023-02-28T10:06:49;2.40;;;1.48;;
61397;SDS011;47267;48.130;-2.040;2023-02-28T10:09:19;2.80;;;1.60;;
61397;SDS011;47267;48.130;-2.040;2023-02-28T10:11:51;4.22;;;1.48;;
61397;SDS011;47267;48.130;-2.040;2023-02-28T10:14:19;3.95;;;1.40;;
61397;SDS011;47267;48.130;-2.040;2023-02-28T10:16:53;3.58;;;1.42;;
61397;SDS011;47267;48.130;-2.040;2023-02-28T10:22:15;2.35;;;1.40;;
61397;SDS011;47267;48.130;-2.040;2023-02-28T10:24:53;2.28;;;1.38;;
61397;SDS011;47267;48.130;-2.040;2023-02-28T10:27:28;2.17;;;1.33;;
61397;SDS011;47267;48.130;-2.040;2023-02-28T10:29:56;3.92;;;1.50;;
61397;SDS011;47267;48.130;-2.040;2023-02-28T10:37:40;3.70;;;1.55;;
61397;SDS011;47267;48.130;-2.040;2023-02-28T10:40:30;3.50;;;1.48;;
61397;SDS011;47267;48.130;-2.040;2023-02-28T10:43:03;1.95;;;1.02;;
61397;SDS011;47267;48.130;-2.040;2023-02-28T10:45:33;3.22;;;1.48;;
61397;SDS011;47267;48.130;-2.040;2023-02-28T10:48:02;2.33;;;1.27;;
61397;SDS011;47267;48.130;-2.040;2023-02-28T10:53:09;3.13;;;1.40;;
61397;SDS011;47267;48.130;-2.040;2023-02-28T10:55:41;1.75;;;1.13;;
61397;SDS011;47267;48.130;-2.040;2023-02-28T10:58:20;2.05;;;1.33;;
61397;SDS011;47267;48.130;-2.040;2023-02-28T11:00:47;2.55;;;1.13;;
61397;SDS011;47267;48.130;-2.040;2023-02-28T11:03:28;2.50;;;1.48;;
61397;SDS011;47267;48.130;-2.040;2023-02-28T11:05:59;1.90;;;1.20;;
61397;SDS011;47267;48.130;-2.040;2023-02-28T11:08:31;2.50;;;1.27;;
61397;SDS011;47267;48.130;-2.040;2023-02-28T11:11:04;2.30;;;1.45;;
61397;SDS011;47267;48.130;-2.040;2023-02-28T11:13:34;2.33;;;1.23;;
61397;SDS011;47267;48.130;-2.040;2023-02-28T11:16:04;2.13;;;1.20;;
61397;SDS011;47267;48.130;-2.040;2023-02-28T11:18:48;2.67;;;1.20;;
61397;SDS011;47267;48.130;-2.040;2023-02-28T11:21:26;1.70;;;1.20;;
61397;SDS011;47267;48.130;-2.040;2023-02-28T11:23:56;2.10;;;1.33;;
61397;SDS011;47267;48.130;-2.040;2023-02-28T11:26:37;2.30;;;1.10;;
61397;SDS011;47267;48.130;-2.040;2023-02-28T11:29:10;2.67;;;1.10;;
61397;SDS011;47267;48.130;-2.040;2023-02-28T11:32:11;1.98;;;1.20;;
61397;SDS011;47267;48.130;-2.040;2023-02-28T11:34:47;1.52;;;1.02;;
61397;SDS011;47267;48.130;-2.040;2023-02-28T11:37:37;2.15;;;1.30;;
61397;SDS011;47267;48.130;-2.040;2023-02-28T11:40:21;2.13;;;1.20;;
61397;SDS011;47267;48.130;-2.040;2023-02-28T11:43:02;1.70;;;1.00;;
61397;SDS011;47267;48.130;-2.040;2023-02-28T11:48:17;2.63;;;1.40;;
61397;SDS011;47267;48.130;-2.040;2023-02-28T11:53:50;2.40;;;0.95;;
61397;SDS011;47267;48.130;-2.040;2023-02-28T11:59:09;2.78;;;1.25;;
61397;SDS011;47267;48.130;-2.040;2023-02-28T12:10:05;1.95;;;1.20;;
61397;SDS011;47267;48.130;-2.040;2023-02-28T12:12:38;1.55;;;0.95;;
61397;SDS011;47267;48.130;-2.040;2023-02-28T12:28:51;1.60;;;0.90;;
61397;SDS011;47267;48.130;-2.040;2023-02-28T12:31:40;1.65;;;0.95;;
61397;SDS011;47267;48.130;-2.040;2023-02-28T12:34:15;2.53;;;1.13;;
61397;SDS011;47267;48.130;-2.040;2023-02-28T12:36:45;2.58;;;1.05;;
61397;SDS011;47267;48.130;-2.040;2023-02-28T12:39:26;3.17;;;1.10;;
61397;SDS011;47267;48.130;-2.040;2023-02-28T12:42:01;1.98;;;0.90;;
61397;SDS011;47267;48.130;-2.040;2023-02-28T12:44:49;1.60;;;1.00;;
61397;SDS011;47267;48.130;-2.040;2023-02-28T12:47:23;2.25;;;1.13;;
61397;SDS011;47267;48.130;-2.040;2023-02-28T12:49:50;1.95;;;1.10;;
61397;SDS011;47267;48.130;-2.040;2023-02-28T12:55:53;3.75;;;1.20;;
61397;SDS011;47267;48.130;-2.040;2023-02-28T12:58:37;1.77;;;0.90;;
61397;SDS011;47267;48.130;-2.040;2023-02-28T13:09:27;1.90;;;0.90;;
61397;SDS011;47267;48.130;-2.040;2023-02-28T13:11:54;1.95;;;1.00;;
61397;SDS011;47267;48.130;-2.040;2023-02-28T13:17:02;1.70;;;0.90;;
61397;SDS011;47267;48.130;-2.040;2023-02-28T13:20:17;2.35;;;0.90;;
61397;SDS011;47267;48.130;-2.040;2023-02-28T13:22:41;1.80;;;1.10;;
61397;SDS011;47267;48.130;-2.040;2023-02-28T13:27:53;1.25;;;0.93;;
61397;SDS011;47267;48.130;-2.040;2023-02-28T13:38:42;1.58;;;0.82;;
61397;SDS011;47267;48.130;-2.040;2023-02-28T13:44:16;1.75;;;0.80;;
61397;SDS011;47267;48.130;-2.040;2023-02-28T14:00:07;2.05;;;1.13;;
61397;SDS011;47267;48.130;-2.040;2023-02-28T14:08:46;1.52;;;0.98;;
61397;SDS011;47267;48.130;-2.040;2023-02-28T14:11:35;1.15;;;0.80;;
61397;SDS011;47267;48.130;-2.040;2023-02-28T14:14:04;1.67;;;0.90;;
61397;SDS011;47267;48.130;-2.040;2023-02-28T14:16:44;1.33;;;0.90;;
61397;SDS011;47267;48.130;-2.040;2023-02-28T14:19:12;1.37;;;0.90;;
61397;SDS011;47267;48.130;-2.040;2023-02-28T14:22:05;2.40;;;0.90;;
61397;SDS011;47267;48.130;-2.040;2023-02-28T14:24:54;2.00;;;0.82;;
61397;SDS011;47267;48.130;-2.040;2023-02-28T14:30:20;1.95;;;1.00;;
61397;SDS011;47267;48.130;-2.040;2023-02-28T14:38:52;1.52;;;0.93;;
61397;SDS011;47267;48.130;-2.040;2023-02-28T14:41:28;1.17;;;0.80;;
61397;SDS011;47267;48.130;-2.040;2023-02-28T14:43:56;1.15;;;0.73;;
61397;SDS011;47267;48.130;-2.040;2023-02-28T14:46:28;1.73;;;1.00;;
61397;SDS011;47267;48.130;-2.040;2023-02-28T14:49:03;1.00;;;0.70;;
61397;SDS011;47267;48.130;-2.040;2023-02-28T14:51:30;2.40;;;1.10;;
61397;SDS011;47267;48.130;-2.040;2023-02-28T14:53:57;1.63;;;0.98;;
61397;SDS011;47267;48.130;-2.040;2023-02-28T14:56:26;2.05;;;0.80;;
61397;SDS011;47267;48.130;-2.040;2023-02-28T14:59:04;1.77;;;0.80;;
61397;SDS011;47267;48.130;-2.040;2023-02-28T15:01:31;1.38;;;0.77;;
61397;SDS011;47267;48.130;-2.040;2023-02-28T15:04:04;1.00;;;0.80;;
61397;SDS011;47267;48.130;-2.040;2023-02-28T15:06:31;1.92;;;0.90;;
61397;SDS011;47267;48.130;-2.040;2023-02-28T15:09:13;1.70;;;0.80;;
61397;SDS011;47267;48.130;-2.040;2023-02-28T15:11:41;1.45;;;0.90;;
61397;SDS011;47267;48.130;-2.040;2023-02-28T15:14:13;1.58;;;0.90;;
61397;SDS011;47267;48.130;-2.040;2023-02-28T15:16:44;1.30;;;0.95;;
61397;SDS011;47267;48.130;-2.040;2023-02-28T15:21:55;1.45;;;0.85;;
61397;SDS011;47267;48.130;-2.040;2023-02-28T15:27:18;2.00;;;0.80;;
61397;SDS011;47267;48.130;-2.040;2023-02-28T15:29:47;1.75;;;0.98;;
61397;SDS011;47267;48.130;-2.040;2023-02-28T15:32:26;2.17;;;0.90;;
61397;SDS011;47267;48.130;-2.040;2023-02-28T15:35:20;1.40;;;0.70;;
61397;SDS011;47267;48.130;-2.040;2023-02-28T15:40:26;1.58;;;1.15;;
61397;SDS011;47267;48.130;-2.040;2023-02-28T15:42:58;1.25;;;0.90;;
61397;SDS011;47267;48.130;-2.040;2023-02-28T15:45:30;2.03;;;0.90;;
61397;SDS011;47267;48.130;-2.040;2023-02-28T15:48:03;2.08;;;1.08;;
61397;SDS011;47267;48.130;-2.040;2023-02-28T15:50:30;2.08;;;1.10;;
61397;SDS011;47267;48.130;-2.040;2023-02-28T15:52:56;1.85;;;1.10;;
61397;SDS011;47267;48.130;-2.040;2023-02-28T15:55:23;1.80;;;1.00;;
61397;SDS011;47267;48.130;-2.040;2023-02-28T15:57:56;1.75;;;0.85;;
61397;SDS011;47267;48.130;-2.040;2023-02-28T16:00:27;1.75;;;0.98;;
61397;SDS011;47267;48.130;-2.040;2023-02-28T16:02:54;2.13;;;1.10;;
61397;SDS011;47267;48.130;-2.040;2023-02-28T16:05:24;2.22;;;1.08;;
61397;SDS011;47267;48.130;-2.040;2023-02-28T16:07:59;2.65;;;1.30;;
61397;SDS011;47267;48.130;-2.040;2023-02-28T16:10:38;1.85;;;0.98;;
61397;SDS011;47267;48.130;-2.040;2023-02-28T16:13:04;2.08;;;1.00;;
61397;SDS011;47267;48.130;-2.040;2023-02-28T16:15:31;2.17;;;1.08;;
61397;SDS011;47267;48.130;-2.040;2023-02-28T16:18:07;1.45;;;0.90;;
61397;SDS011;47267;48.130;-2.040;2023-02-28T16:20:36;2.10;;;1.10;;
61397;SDS011;47267;48.130;-2.040;2023-02-28T16:23:02;1.40;;;0.80;;
61397;SDS011;47267;48.130;-2.040;2023-02-28T16:25:34;1.55;;;1.00;;
61397;SDS011;47267;48.130;-2.040;2023-02-28T16:28:07;2.33;;;1.00;;
61397;SDS011;47267;48.130;-2.040;2023-02-28T16:30:45;2.00;;;1.13;;
61397;SDS011;47267;48.130;-2.040;2023-02-28T16:33:11;1.60;;;1.00;;
61397;SDS011;47267;48.130;-2.040;2023-02-28T16:35:37;1.23;;;0.85;;
61397;SDS011;47267;48.130;-2.040;2023-02-28T16:38:03;1.40;;;1.10;;
61397;SDS011;47267;48.130;-2.040;2023-02-28T16:40:28;2.13;;;1.10;;
61397;SDS011;47267;48.130;-2.040;2023-02-28T16:45:26;4.70;;;1.20;;
61397;SDS011;47267;48.130;-2.040;2023-02-28T16:47:53;7.25;;;1.48;;
61397;SDS011;47267;48.130;-2.040;2023-02-28T16:50:24;2.53;;;0.90;;
61397;SDS011;47267;48.130;-2.040;2023-02-28T16:52:52;2.38;;;1.10;;
61397;SDS011;47267;48.130;-2.040;2023-02-28T16:55:19;3.00;;;1.15;;
61397;SDS011;47267;48.130;-2.040;2023-02-28T16:57:47;2.13;;;1.10;;
61397;SDS011;47267;48.130;-2.040;2023-02-28T17:00:17;2.70;;;1.10;;
61397;SDS011;47267;48.130;-2.040;2023-02-28T17:02:42;2.15;;;1.05;;
61397;SDS011;47267;48.130;-2.040;2023-02-28T17:05:10;2.03;;;1.25;;
61397;SDS011;47267;48.130;-2.040;2023-02-28T17:07:37;1.65;;;1.10;;
61397;SDS011;47267;48.130;-2.040;2023-02-28T17:10:08;2.22;;;1.27;;
61397;SDS011;47267;48.130;-2.040;2023-02-28T17:12:44;2.15;;;0.95;;
61397;SDS011;47267;48.130;-2.040;2023-02-28T17:15:14;3.53;;;1.30;;
61397;SDS011;47267;48.130;-2.040;2023-02-28T17:17:42;1.42;;;0.90;;
61397;SDS011;47267;48.130;-2.040;2023-02-28T17:20:13;3.03;;;1.30;;
61397;SDS011;47267;48.130;-2.040;2023-02-28T17:22:43;3.20;;;1.10;;
61397;SDS011;47267;48.130;-2.040;2023-02-28T17:25:10;2.03;;;1.05;;